< < Back
Terminal Aerodrome Forecast


Current Version              Previous Versions:   1  2  3  4  5  6  7  8  9  

Terminal Aerodrome Forecast

939
FTUS42 KTAE 201700
TAFDHN
TAF
KDHN 201720Z 2018/2118 04009KT P6SM BKN014 OVC020
     FM202000 04009G15KT P6SM SCT025 SCT050
     FM210000 05005KT P6SM SCT250
     FM211500 06004KT P6SM SKC=

Latest METAR

061
SAUS70 KWBC 202100
MTRDHN
METAR KDHN 202053Z 04006KT 10SM BKN025 OVC031 17/12 A3018 RMK AO2 SLP216
T01720117 56015


USA.gov is the U.S. government's official web portal to all federal, state and local government web resources and services.